sensor_id;sensor_type;location;lat;lon;timestamp;pressure;altitude;pressure_sealevel;temperature;humidity
41202;BME280;26936;50.524;8.684;2023-02-13T00:00:52;101535.91;;;6.78;100.00
41202;BME280;26936;50.524;8.684;2023-02-13T00:03:17;101541.06;;;6.76;100.00
41202;BME280;26936;50.524;8.684;2023-02-13T00:05:43;101534.72;;;6.79;100.00
41202;BME280;26936;50.524;8.684;2023-02-13T00:08:08;101533.41;;;6.73;100.00
41202;BME280;26936;50.524;8.684;2023-02-13T00:10:33;101529.88;;;6.76;100.00
41202;BME280;26936;50.524;8.684;2023-02-13T00:12:59;101529.81;;;6.73;100.00
41202;BME280;26936;50.524;8.684;2023-02-13T00:15:24;101523.75;;;6.71;100.00
41202;BME280;26936;50.524;8.684;2023-02-13T00:17:49;101537.38;;;6.72;100.00
41202;BME280;26936;50.524;8.684;2023-02-13T00:20:15;101525.44;;;6.75;100.00
41202;BME280;26936;50.524;8.684;2023-02-13T00:22:40;101518.59;;;6.73;100.00
41202;BME280;26936;50.524;8.684;2023-02-13T00:25:06;101512.13;;;6.69;100.00
41202;BME280;26936;50.524;8.684;2023-02-13T00:27:32;101522.47;;;6.65;100.00
41202;BME280;26936;50.524;8.684;2023-02-13T00:29:57;101517.78;;;6.72;100.00
41202;BME280;26936;50.524;8.684;2023-02-13T00:32:23;101515.41;;;6.74;100.00
41202;BME280;26936;50.524;8.684;2023-02-13T00:34:48;101518.59;;;6.73;100.00
41202;BME280;26936;50.524;8.684;2023-02-13T00:37:13;101512.50;;;6.67;100.00
41202;BME280;26936;50.524;8.684;2023-02-13T00:39:38;101507.72;;;6.68;100.00
41202;BME280;26936;50.524;8.684;2023-02-13T00:42:04;101514.59;;;6.74;100.00
41202;BME280;26936;50.524;8.684;2023-02-13T00:44:30;101511.94;;;6.81;100.00
41202;BME280;26936;50.524;8.684;2023-02-13T00:46:55;101519.75;;;6.95;100.00
41202;BME280;26936;50.524;8.684;2023-02-13T00:49:20;101514.41;;;6.86;100.00
41202;BME280;26936;50.524;8.684;2023-02-13T00:51:46;101521.94;;;6.82;100.00
41202;BME280;26936;50.524;8.684;2023-02-13T00:54:12;101520.19;;;6.74;100.00
41202;BME280;26936;50.524;8.684;2023-02-13T00:56:37;101513.00;;;6.73;100.00
41202;BME280;26936;50.524;8.684;2023-02-13T00:59:02;101519.63;;;6.87;100.00
41202;BME280;26936;50.524;8.684;2023-02-13T01:01:27;101514.09;;;6.91;100.00
41202;BME280;26936;50.524;8.684;2023-02-13T01:03:53;101518.88;;;6.90;100.00
41202;BME280;26936;50.524;8.684;2023-02-13T01:06:18;101514.03;;;6.87;100.00
41202;BME280;26936;50.524;8.684;2023-02-13T01:08:43;101514.47;;;6.89;100.00
41202;BME280;26936;50.524;8.684;2023-02-13T01:11:09;101510.72;;;6.82;100.00
41202;BME280;26936;50.524;8.684;2023-02-13T01:13:34;101511.16;;;6.84;100.00
41202;BME280;26936;50.524;8.684;2023-02-13T01:16:00;101507.53;;;6.80;100.00
41202;BME280;26936;50.524;8.684;2023-02-13T01:18:25;101515.59;;;6.85;100.00
41202;BME280;26936;50.524;8.684;2023-02-13T01:20:57;101518.03;;;6.86;100.00
41202;BME280;26936;50.524;8.684;2023-02-13T01:23:23;101504.28;;;6.78;100.00
41202;BME280;26936;50.524;8.684;2023-02-13T01:25:48;101508.53;;;6.95;100.00
41202;BME280;26936;50.524;8.684;2023-02-13T01:28:16;101507.09;;;7.04;100.00
41202;BME280;26936;50.524;8.684;2023-02-13T01:30:41;101500.34;;;7.09;100.00
41202;BME280;26936;50.524;8.684;2023-02-13T01:33:06;101496.13;;;6.96;100.00
41202;BME280;26936;50.524;8.684;2023-02-13T01:35:31;101499.44;;;7.01;100.00
41202;BME280;26936;50.524;8.684;2023-02-13T01:37:57;101503.84;;;7.02;100.00
41202;BME280;26936;50.524;8.684;2023-02-13T01:40:22;101494.69;;;7.05;100.00
41202;BME280;26936;50.524;8.684;2023-02-13T01:42:47;101493.34;;;6.96;100.00
41202;BME280;26936;50.524;8.684;2023-02-13T01:45:26;101489.84;;;7.02;100.00
41202;BME280;26936;50.524;8.684;2023-02-13T01:48:14;101490.72;;;7.06;100.00
41202;BME280;26936;50.524;8.684;2023-02-13T01:50:47;101489.72;;;6.95;100.00
41202;BME280;26936;50.524;8.684;2023-02-13T01:53:27;101482.25;;;7.03;100.00
41202;BME280;26936;50.524;8.684;2023-02-13T01:56:02;101488.88;;;6.91;100.00
41202;BME280;26936;50.524;8.684;2023-02-13T01:58:31;101486.06;;;6.91;100.00
41202;BME280;26936;50.524;8.684;2023-02-13T02:00:58;101478.50;;;6.92;100.00
41202;BME280;26936;50.524;8.684;2023-02-13T02:03:32;101484.34;;;6.83;100.00
41202;BME280;26936;50.524;8.684;2023-02-13T02:06:01;101477.09;;;6.78;100.00
41202;BME280;26936;50.524;8.684;2023-02-13T02:08:27;101483.78;;;6.74;100.00
41202;BME280;26936;50.524;8.684;2023-02-13T02:10:55;101486.97;;;6.72;100.00
41202;BME280;26936;50.524;8.684;2023-02-13T02:13:22;101497.97;;;6.84;100.00
41202;BME280;26936;50.524;8.684;2023-02-13T02:15:48;101497.91;;;6.81;100.00
41202;BME280;26936;50.524;8.684;2023-02-13T02:18:19;101494.75;;;6.82;100.00
41202;BME280;26936;50.524;8.684;2023-02-13T02:21:06;101499.44;;;6.75;100.00
41202;BME280;26936;50.524;8.684;2023-02-13T02:26:57;101485.38;;;6.71;100.00
41202;BME280;26936;50.524;8.684;2023-02-13T02:35:22;101489.78;;;6.72;100.00
41202;BME280;26936;50.524;8.684;2023-02-13T02:43:44;101489.56;;;6.58;100.00
41202;BME280;26936;50.524;8.684;2023-02-13T02:46:27;101488.31;;;6.56;100.00
41202;BME280;26936;50.524;8.684;2023-02-13T02:51:54;101487.19;;;6.60;100.00
41202;BME280;26936;50.524;8.684;2023-02-13T02:54:30;101489.69;;;6.65;100.00
41202;BME280;26936;50.524;8.684;2023-02-13T02:57:20;101487.19;;;6.60;100.00
41202;BME280;26936;50.524;8.684;2023-02-13T02:59:47;101482.69;;;6.56;100.00
41202;BME280;26936;50.524;8.684;2023-02-13T03:02:32;101486.69;;;6.55;100.00
41202;BME280;26936;50.524;8.684;2023-02-13T03:05:30;101489.56;;;6.58;100.00
41202;BME280;26936;50.524;8.684;2023-02-13T03:08:31;101488.31;;;6.56;100.00
41202;BME280;26936;50.524;8.684;2023-02-13T03:11:15;101494.66;;;6.53;100.00
41202;BME280;26936;50.524;8.684;2023-02-13T03:14:00;101489.38;;;6.48;100.00
41202;BME280;26936;50.524;8.684;2023-02-13T03:16:28;101490.13;;;6.45;100.00
41202;BME280;26936;50.524;8.684;2023-02-13T03:19:27;101487.63;;;6.40;100.00
41202;BME280;26936;50.524;8.684;2023-02-13T03:27:45;101492.53;;;6.46;100.00
41202;BME280;26936;50.524;8.684;2023-02-13T03:33:26;101494.00;;;6.37;100.00
41202;BME280;26936;50.524;8.684;2023-02-13T03:39:07;101494.75;;;6.34;100.00
41202;BME280;26936;50.524;8.684;2023-02-13T03:41:43;101500.72;;;6.32;100.00
41202;BME280;26936;50.524;8.684;2023-02-13T03:44:12;101504.34;;;6.33;100.00
41202;BME280;26936;50.524;8.684;2023-02-13T03:46:43;101503.06;;;6.30;100.00
41202;BME280;26936;50.524;8.684;2023-02-13T03:49:15;101496.41;;;6.38;100.00
41202;BME280;26936;50.524;8.684;2023-02-13T03:52:08;101510.63;;;6.26;100.00
41202;BME280;26936;50.524;8.684;2023-02-13T03:54:49;101505.38;;;6.25;100.00
41202;BME280;26936;50.524;8.684;2023-02-13T03:57:36;101503.88;;;6.31;100.00
41202;BME280;26936;50.524;8.684;2023-02-13T04:00:24;101501.41;;;6.26;100.00
41202;BME280;26936;50.524;8.684;2023-02-13T04:02:56;101498.66;;;6.29;100.00
41202;BME280;26936;50.524;8.684;2023-02-13T04:05:27;101501.03;;;6.27;100.00
41202;BME280;26936;50.524;8.684;2023-02-13T04:07:54;101501.47;;;6.29;100.00
41202;BME280;26936;50.524;8.684;2023-02-13T04:10:20;101502.16;;;6.23;100.00
41202;BME280;26936;50.524;8.684;2023-02-13T04:15:37;101501.25;;;6.19;100.00
41202;BME280;26936;50.524;8.684;2023-02-13T04:18:09;101511.28;;;6.20;100.00
41202;BME280;26936;50.524;8.684;2023-02-13T04:20:35;101503.31;;;6.22;100.00
41202;BME280;26936;50.524;8.684;2023-02-13T04:23:09;101496.47;;;6.19;100.00
41202;BME280;26936;50.524;8.684;2023-02-13T04:25:37;101496.72;;;6.11;100.00
41202;BME280;26936;50.524;8.684;2023-02-13T04:28:03;101489.91;;;6.08;100.00
41202;BME280;26936;50.524;8.684;2023-02-13T04:30:28;101495.03;;;6.06;100.00
41202;BME280;26936;50.524;8.684;2023-02-13T04:32:54;101503.38;;;6.03;100.00
41202;BME280;26936;50.524;8.684;2023-02-13T04:35:19;101492.03;;;5.96;100.00
41202;BME280;26936;50.524;8.684;2023-02-13T04:37:44;101498.75;;;5.91;100.00
41202;BME280;26936;50.524;8.684;2023-02-13T04:40:10;101497.44;;;5.85;100.00
41202;BME280;26936;50.524;8.684;2023-02-13T04:42:35;101493.72;;;5.81;100.00
41202;BME280;26936;50.524;8.684;2023-02-13T04:45:01;101496.03;;;5.76;100.00
41202;BME280;26936;50.524;8.684;2023-02-13T04:47:26;101499.19;;;5.74;100.00
41202;BME280;26936;50.524;8.684;2023-02-13T04:49:51;101494.28;;;5.68;100.00
41202;BME280;26936;50.524;8.684;2023-02-13T04:52:16;101497.06;;;5.68;100.00
41202;BME280;26936;50.524;8.684;2023-02-13T04:54:42;101497.38;;;5.63;100.00
41202;BME280;26936;50.524;8.684;2023-02-13T04:57:07;101496.09;;;5.60;100.00
41202;BME280;26936;50.524;8.684;2023-02-13T04:59:33;101499.25;;;5.58;100.00
41202;BME280;26936;50.524;8.684;2023-02-13T05:01:58;101496.38;;;5.55;100.00
41202;BME280;26936;50.524;8.684;2023-02-13T05:04:24;101498.81;;;5.56;100.00
41202;BME280;26936;50.524;8.684;2023-02-13T05:06:49;101494.34;;;5.52;100.00
41202;BME280;26936;50.524;8.684;2023-02-13T05:09:15;101497.06;;;5.48;100.00
41202;BME280;26936;50.524;8.684;2023-02-13T05:11:40;101501.19;;;5.54;100.00
41202;BME280;26936;50.524;8.684;2023-02-13T05:14:05;101492.81;;;5.54;100.00
41202;BME280;26936;50.524;8.684;2023-02-13T05:16:30;101506.41;;;5.56;100.00
41202;BME280;26936;50.524;8.684;2023-02-13T05:18:56;101495.16;;;5.52;100.00
41202;BME280;26936;50.524;8.684;2023-02-13T05:21:21;101502.34;;;5.53;100.00
41202;BME280;26936;50.524;8.684;2023-02-13T05:24:05;101494.34;;;5.52;100.00
41202;BME280;26936;50.524;8.684;2023-02-13T05:26:30;101495.53;;;5.51;100.00
41202;BME280;26936;50.524;8.684;2023-02-13T05:28:56;101494.72;;;5.50;100.00
41202;BME280;26936;50.524;8.684;2023-02-13T05:31:40;101496.69;;;5.50;100.00
41202;BME280;26936;50.524;8.684;2023-02-13T05:34:05;101489.84;;;5.47;100.00
41202;BME280;26936;50.524;8.684;2023-02-13T05:36:30;101490.59;;;5.44;100.00
41202;BME280;26936;50.524;8.684;2023-02-13T05:38:55;101490.97;;;5.43;100.00
41202;BME280;26936;50.524;8.684;2023-02-13T05:41:21;101493.16;;;5.34;100.00
41202;BME280;26936;50.524;8.684;2023-02-13T05:43:46;101489.50;;;5.30;100.00
41202;BME280;26936;50.524;8.684;2023-02-13T05:46:11;101490.66;;;5.29;100.00
41202;BME280;26936;50.524;8.684;2023-02-13T05:48:37;101489.69;;;5.21;100.00
41202;BME280;26936;50.524;8.684;2023-02-13T05:51:02;101491.66;;;5.21;100.00
41202;BME280;26936;50.524;8.684;2023-02-13T05:53:28;101490.81;;;5.17;100.00
41202;BME280;26936;50.524;8.684;2023-02-13T05:55:54;101490.19;;;5.08;100.00
41202;BME280;26936;50.524;8.684;2023-02-13T05:58:19;101482.09;;;5.03;100.00
41202;BME280;26936;50.524;8.684;2023-02-13T06:00:45;101485.53;;;4.96;100.00
41202;BME280;26936;50.524;8.684;2023-02-13T06:03:11;101480.22;;;4.91;100.00
41202;BME280;26936;50.524;8.684;2023-02-13T06:05:36;101483.06;;;4.76;100.00
41202;BME280;26936;50.524;8.684;2023-02-13T06:08:02;101489.75;;;4.71;100.00
41202;BME280;26936;50.524;8.684;2023-02-13T06:10:27;101476.84;;;4.67;100.00
41202;BME280;26936;50.524;8.684;2023-02-13T06:12:53;101483.03;;;4.57;100.00
41202;BME280;26936;50.524;8.684;2023-02-13T06:15:18;101490.38;;;4.49;100.00
41202;BME280;26936;50.524;8.684;2023-02-13T06:17:43;101493.81;;;4.43;100.00
41202;BME280;26936;50.524;8.684;2023-02-13T06:20:09;101494.09;;;4.38;100.00
41202;BME280;26936;50.524;8.684;2023-02-13T06:22:34;101494.25;;;4.29;100.00
41202;BME280;26936;50.524;8.684;2023-02-13T06:24:59;101488.63;;;4.26;100.00
41202;BME280;26936;50.524;8.684;2023-02-13T06:27:24;101490.38;;;4.18;100.00
41202;BME280;26936;50.524;8.684;2023-02-13T06:29:50;101497.06;;;4.13;100.00
41202;BME280;26936;50.524;8.684;2023-02-13T06:32:15;101499.75;;;4.10;100.00
41202;BME280;26936;50.524;8.684;2023-02-13T06:34:40;101490.13;;;4.07;100.00
41202;BME280;26936;50.524;8.684;2023-02-13T06:37:05;101490.75;;;4.01;100.00
41202;BME280;26936;50.524;8.684;2023-02-13T06:39:31;101494.25;;;3.98;100.00
41202;BME280;26936;50.524;8.684;2023-02-13T06:41:56;101496.50;;;3.92;100.00
41202;BME280;26936;50.524;8.684;2023-02-13T06:44:21;101490.72;;;3.85;100.00
41202;BME280;26936;50.524;8.684;2023-02-13T06:46:46;101490.53;;;3.78;100.00
41202;BME280;26936;50.524;8.684;2023-02-13T06:49:12;101496.44;;;3.77;100.00
41202;BME280;26936;50.524;8.684;2023-02-13T06:51:37;101491.16;;;3.72;100.00
41202;BME280;26936;50.524;8.684;2023-02-13T06:54:02;101492.19;;;3.67;100.00
41202;BME280;26936;50.524;8.684;2023-02-13T06:56:28;101496.88;;;3.63;100.00
41202;BME280;26936;50.524;8.684;2023-02-13T06:58:53;101504.41;;;3.63;100.00
41202;BME280;26936;50.524;8.684;2023-02-13T07:01:18;101488.41;;;3.60;100.00
41202;BME280;26936;50.524;8.684;2023-02-13T07:03:43;101496.06;;;3.63;100.00
41202;BME280;26936;50.524;8.684;2023-02-13T07:06:09;101496.16;;;3.66;100.00
41202;BME280;26936;50.524;8.684;2023-02-13T07:08:35;101498.13;;;3.66;100.00
41202;BME280;26936;50.524;8.684;2023-02-13T07:11:00;101494.09;;;3.63;100.00
41202;BME280;26936;50.524;8.684;2023-02-13T07:13:25;101498.84;;;3.63;100.00
41202;BME280;26936;50.524;8.684;2023-02-13T07:15:50;101496.88;;;3.63;100.00
41202;BME280;26936;50.524;8.684;2023-02-13T07:18:16;101500.91;;;3.66;100.00
41202;BME280;26936;50.524;8.684;2023-02-13T07:20:41;101498.22;;;3.69;100.00
41202;BME280;26936;50.524;8.684;2023-02-13T07:23:06;101505.41;;;3.70;100.00
41202;BME280;26936;50.524;8.684;2023-02-13T07:25:33;101504.72;;;3.73;100.00
41202;BME280;26936;50.524;8.684;2023-02-13T07:28:02;101500.97;;;3.81;100.00
41202;BME280;26936;50.524;8.684;2023-02-13T07:30:29;101497.81;;;3.83;100.00
41202;BME280;26936;50.524;8.684;2023-02-13T07:33:00;101497.22;;;3.89;100.00
41202;BME280;26936;50.524;8.684;2023-02-13T07:35:26;101496.50;;;3.92;100.00
41202;BME280;26936;50.524;8.684;2023-02-13T07:37:54;101504.13;;;3.95;100.00
41202;BME280;26936;50.524;8.684;2023-02-13T07:40:19;101503.06;;;4.00;100.00
41202;BME280;26936;50.524;8.684;2023-02-13T07:42:44;101502.00;;;4.04;100.00
41202;BME280;26936;50.524;8.684;2023-02-13T07:45:10;101501.72;;;4.09;100.00
41202;BME280;26936;50.524;8.684;2023-02-13T07:47:36;101507.13;;;4.18;100.00
41202;BME280;26936;50.524;8.684;2023-02-13T07:50:02;101508.03;;;4.22;100.00
41202;BME280;26936;50.524;8.684;2023-02-13T07:52:30;101513.44;;;4.31;100.00
41202;BME280;26936;50.524;8.684;2023-02-13T07:54:55;101522.53;;;4.43;100.00
41202;BME280;26936;50.524;8.684;2023-02-13T07:57:20;101515.22;;;4.54;100.00
41202;BME280;26936;50.524;8.684;2023-02-13T07:59:45;101521.16;;;4.68;100.00
41202;BME280;26936;50.524;8.684;2023-02-13T08:02:12;101527.91;;;4.83;100.00
41202;BME280;26936;50.524;8.684;2023-02-13T08:04:38;101526.00;;;5.02;100.00
41202;BME280;26936;50.524;8.684;2023-02-13T08:07:03;101526.00;;;5.21;100.00
41202;BME280;26936;50.524;8.684;2023-02-13T08:09:28;101530.47;;;5.41;100.00
41202;BME280;26936;50.524;8.684;2023-02-13T08:12:12;101533.69;;;5.63;100.00
41202;BME280;26936;50.524;8.684;2023-02-13T08:14:37;101536.78;;;5.77;100.00
41202;BME280;26936;50.524;8.684;2023-02-13T08:17:03;101530.78;;;5.94;100.00
41202;BME280;26936;50.524;8.684;2023-02-13T08:19:28;101527.41;;;6.07;100.00
41202;BME280;26936;50.524;8.684;2023-02-13T08:21:53;101535.34;;;6.24;100.00
41202;BME280;26936;50.524;8.684;2023-02-13T08:24:19;101530.75;;;6.35;100.00
41202;BME280;26936;50.524;8.684;2023-02-13T08:26:44;101529.63;;;6.40;100.00
41202;BME280;26936;50.524;8.684;2023-02-13T08:29:09;101531.44;;;6.51;100.00
41202;BME280;26936;50.524;8.684;2023-02-13T08:31:35;101535.78;;;6.71;100.00
41202;BME280;26936;50.524;8.684;2023-02-13T08:34:00;101531.59;;;6.84;100.00
41202;BME280;26936;50.524;8.684;2023-02-13T08:36:26;101528.94;;;6.95;100.00
41202;BME280;26936;50.524;8.684;2023-02-13T08:38:51;101522.28;;;7.03;100.00
41202;BME280;26936;50.524;8.684;2023-02-13T08:41:17;101529.69;;;7.18;100.00
41202;BME280;26936;50.524;8.684;2023-02-13T08:43:43;101529.44;;;7.27;100.00
41202;BME280;26936;50.524;8.684;2023-02-13T08:46:08;101526.47;;;7.42;100.00
41202;BME280;26936;50.524;8.684;2023-02-13T08:48:33;101525.44;;;7.57;100.00
41202;BME280;26936;50.524;8.684;2023-02-13T08:50:59;101522.78;;;7.68;100.00
41202;BME280;26936;50.524;8.684;2023-02-13T08:53:24;101526.03;;;8.06;100.00
41202;BME280;26936;50.524;8.684;2023-02-13T08:55:54;101517.44;;;8.69;97.91
41202;BME280;26936;50.524;8.684;2023-02-13T08:58:19;101528.63;;;9.16;92.50
41202;BME280;26936;50.524;8.684;2023-02-13T09:00:44;101524.03;;;9.55;89.20
41202;BME280;26936;50.524;8.684;2023-02-13T09:03:10;101522.19;;;10.02;88.04
41202;BME280;26936;50.524;8.684;2023-02-13T09:05:35;101524.75;;;10.59;82.24
41202;BME280;26936;50.524;8.684;2023-02-13T09:08:01;101530.41;;;10.77;80.05
41202;BME280;26936;50.524;8.684;2023-02-13T09:10:29;101535.16;;;11.40;77.76
41202;BME280;26936;50.524;8.684;2023-02-13T09:12:54;101536.31;;;11.70;74.68
41202;BME280;26936;50.524;8.684;2023-02-13T09:15:19;101527.88;;;12.39;71.17
41202;BME280;26936;50.524;8.684;2023-02-13T09:17:46;101541.13;;;11.70;76.22
41202;BME280;26936;50.524;8.684;2023-02-13T09:20:12;101526.59;;;11.82;75.34
41202;BME280;26936;50.524;8.684;2023-02-13T09:22:40;101530.69;;;12.94;70.38
41202;BME280;26936;50.524;8.684;2023-02-13T09:25:06;101530.72;;;14.02;66.94
41202;BME280;26936;50.524;8.684;2023-02-13T09:27:33;101528.88;;;14.75;62.49
41202;BME280;26936;50.524;8.684;2023-02-13T09:29:59;101525.09;;;14.58;63.34
41202;BME280;26936;50.524;8.684;2023-02-13T09:32:24;101522.28;;;15.05;62.62
41202;BME280;26936;50.524;8.684;2023-02-13T09:34:49;101528.06;;;16.22;57.31
41202;BME280;26936;50.524;8.684;2023-02-13T09:37:15;101520.03;;;17.04;53.55
41202;BME280;26936;50.524;8.684;2023-02-13T09:39:40;101515.66;;;17.16;53.99
41202;BME280;26936;50.524;8.684;2023-02-13T09:42:16;101519.72;;;17.47;52.68
41202;BME280;26936;50.524;8.684;2023-02-13T09:44:45;101516.47;;;17.61;51.94
41202;BME280;26936;50.524;8.684;2023-02-13T09:47:29;101514.09;;;18.13;49.42
41202;BME280;26936;50.524;8.684;2023-02-13T09:50:11;101518.06;;;18.03;51.50
41202;BME280;26936;50.524;8.684;2023-02-13T09:52:38;101514.53;;;17.99;50.84
41202;BME280;26936;50.524;8.684;2023-02-13T09:55:16;101518.91;;;19.04;46.71
41202;BME280;26936;50.524;8.684;2023-02-13T09:58:08;101519.88;;;17.85;48.87
41202;BME280;26936;50.524;8.684;2023-02-13T10:00:41;101510.84;;;18.65;48.03
41202;BME280;26936;50.524;8.684;2023-02-13T10:05:57;101510.41;;;18.00;49.11
41202;BME280;26936;50.524;8.684;2023-02-13T10:08:33;101523.31;;;17.64;50.09
41202;BME280;26936;50.524;8.684;2023-02-13T10:13:53;101513.50;;;17.65;49.14
41202;BME280;26936;50.524;8.684;2023-02-13T10:16:35;101512.44;;;18.78;48.53
41202;BME280;26936;50.524;8.684;2023-02-13T10:19:17;101511.53;;;17.90;49.41
41202;BME280;26936;50.524;8.684;2023-02-13T10:21:57;101508.56;;;18.85;46.92
41202;BME280;26936;50.524;8.684;2023-02-13T10:24:33;101512.56;;;18.75;47.52
41202;BME280;26936;50.524;8.684;2023-02-13T10:27:08;101501.94;;;18.75;46.63
41202;BME280;26936;50.524;8.684;2023-02-13T10:29:46;101507.66;;;18.63;47.14
41202;BME280;26936;50.524;8.684;2023-02-13T10:32:44;101501.09;;;18.25;47.21
41202;BME280;26936;50.524;8.684;2023-02-13T10:35:29;101507.06;;;17.77;47.90
41202;BME280;26936;50.524;8.684;2023-02-13T10:37:58;101513.69;;;17.57;49.00
41202;BME280;26936;50.524;8.684;2023-02-13T10:40:30;101516.94;;;17.72;47.63
41202;BME280;26936;50.524;8.684;2023-02-13T10:43:07;101508.50;;;17.69;48.50
41202;BME280;26936;50.524;8.684;2023-02-13T10:51:30;101508.41;;;18.26;47.87
41202;BME280;26936;50.524;8.684;2023-02-13T10:54:14;101504.16;;;18.05;47.69
41202;BME280;26936;50.524;8.684;2023-02-13T10:56:59;101499.47;;;17.13;49.38
41202;BME280;26936;50.524;8.684;2023-02-13T11:02:19;101495.50;;;18.09;48.24
41202;BME280;26936;50.524;8.684;2023-02-13T11:04:45;101487.22;;;17.73;50.46
41202;BME280;26936;50.524;8.684;2023-02-13T11:07:14;101483.75;;;18.07;48.58
41202;BME280;26936;50.524;8.684;2023-02-13T11:09:43;101485.03;;;18.68;45.65
41202;BME280;26936;50.524;8.684;2023-02-13T11:12:31;101480.44;;;17.96;45.81
41202;BME280;26936;50.524;8.684;2023-02-13T11:14:59;101477.03;;;17.59;47.18
41202;BME280;26936;50.524;8.684;2023-02-13T11:17:31;101463.09;;;18.03;47.11
41202;BME280;26936;50.524;8.684;2023-02-13T11:20:02;101468.56;;;17.27;48.59
41202;BME280;26936;50.524;8.684;2023-02-13T11:22:32;101462.25;;;17.77;47.41
41202;BME280;26936;50.524;8.684;2023-02-13T11:25:11;101462.94;;;17.81;46.74
41202;BME280;26936;50.524;8.684;2023-02-13T11:27:41;101465.75;;;16.79;48.94
41202;BME280;26936;50.524;8.684;2023-02-13T11:30:31;101458.19;;;17.05;49.79
41202;BME280;26936;50.524;8.684;2023-02-13T11:33:01;101459.97;;;16.99;48.96
41202;BME280;26936;50.524;8.684;2023-02-13T11:35:30;101454.97;;;17.47;48.35
41202;BME280;26936;50.524;8.684;2023-02-13T11:40:40;101457.53;;;17.13;49.57
41202;BME280;26936;50.524;8.684;2023-02-13T11:43:07;101451.72;;;16.88;50.30
41202;BME280;26936;50.524;8.684;2023-02-13T11:45:33;101455.34;;;17.05;49.52
41202;BME280;26936;50.524;8.684;2023-02-13T11:47:58;101446.34;;;16.90;50.47
41202;BME280;26936;50.524;8.684;2023-02-13T11:50:33;101452.69;;;17.26;50.18
41202;BME280;26936;50.524;8.684;2023-02-13T11:53:05;101446.41;;;17.19;48.80
41202;BME280;26936;50.524;8.684;2023-02-13T11:55:37;101446.94;;;16.85;50.88
41202;BME280;26936;50.524;8.684;2023-02-13T11:58:22;101450.28;;;16.48;51.00
41202;BME280;26936;50.524;8.684;2023-02-13T12:00:48;101453.34;;;15.86;52.58
41202;BME280;26936;50.524;8.684;2023-02-13T12:08:35;101453.81;;;15.45;53.78
41202;BME280;26936;50.524;8.684;2023-02-13T12:11:05;101448.16;;;15.22;55.11
41202;BME280;26936;50.524;8.684;2023-02-13T12:13:37;101447.03;;;15.39;55.31
41202;BME280;26936;50.524;8.684;2023-02-13T12:16:09;101437.00;;;15.54;54.25
41202;BME280;26936;50.524;8.684;2023-02-13T12:18:42;101444.00;;;15.50;54.58
41202;BME280;26936;50.524;8.684;2023-02-13T12:21:23;101437.97;;;15.25;55.16
41202;BME280;26936;50.524;8.684;2023-02-13T12:27:30;101424.72;;;15.38;55.92
41202;BME280;26936;50.524;8.684;2023-02-13T12:33:15;101415.38;;;14.98;55.87
41202;BME280;26936;50.524;8.684;2023-02-13T12:38:48;101407.75;;;14.26;58.22
41202;BME280;26936;50.524;8.684;2023-02-13T12:41:18;101407.78;;;13.96;59.95
41202;BME280;26936;50.524;8.684;2023-02-13T12:47:15;101405.59;;;14.07;59.93
41202;BME280;26936;50.524;8.684;2023-02-13T12:55:32;101395.00;;;14.11;60.34
41202;BME280;26936;50.524;8.684;2023-02-13T13:03:58;101392.84;;;13.35;64.87
41202;BME280;26936;50.524;8.684;2023-02-13T13:06:50;101378.59;;;13.72;64.63
41202;BME280;26936;50.524;8.684;2023-02-13T13:09:39;101383.56;;;13.64;64.55
41202;BME280;26936;50.524;8.684;2023-02-13T13:15:07;101376.06;;;13.21;64.68
41202;BME280;26936;50.524;8.684;2023-02-13T13:17:58;101383.56;;;13.34;64.50
41202;BME280;26936;50.524;8.684;2023-02-13T13:25:59;101368.56;;;13.00;67.32
41202;BME280;26936;50.524;8.684;2023-02-13T13:28:40;101360.38;;;13.43;64.82
41202;BME280;26936;50.524;8.684;2023-02-13T13:31:07;101369.81;;;13.03;65.94
41202;BME280;26936;50.524;8.684;2023-02-13T13:33:32;101371.91;;;12.95;66.70
41202;BME280;26936;50.524;8.684;2023-02-13T13:44:00;101364.00;;;12.76;67.77
41202;BME280;26936;50.524;8.684;2023-02-13T13:46:38;101356.84;;;12.65;68.55
41202;BME280;26936;50.524;8.684;2023-02-13T13:49:15;101359.31;;;13.00;66.33
41202;BME280;26936;50.524;8.684;2023-02-13T13:51:46;101351.63;;;13.34;65.32
41202;BME280;26936;50.524;8.684;2023-02-13T14:05:07;101348.06;;;12.56;69.50
41202;BME280;26936;50.524;8.684;2023-02-13T14:07:36;101351.38;;;12.47;70.88
41202;BME280;26936;50.524;8.684;2023-02-13T14:10:02;101344.16;;;11.98;71.29
41202;BME280;26936;50.524;8.684;2023-02-13T14:14:55;101343.13;;;12.22;70.73
41202;BME280;26936;50.524;8.684;2023-02-13T14:31:39;101331.75;;;11.85;71.70
41202;BME280;26936;50.524;8.684;2023-02-13T14:34:16;101324.56;;;11.74;72.95
41202;BME280;26936;50.524;8.684;2023-02-13T14:36:48;101331.75;;;11.85;72.42
41202;BME280;26936;50.524;8.684;2023-02-13T14:39:30;101330.19;;;11.77;71.69
41202;BME280;26936;50.524;8.684;2023-02-13T14:42:01;101331.91;;;11.64;72.95
41202;BME280;26936;50.524;8.684;2023-02-13T14:47:13;101319.31;;;11.76;71.84
41202;BME280;26936;50.524;8.684;2023-02-13T14:49:42;101324.56;;;11.74;72.67
41202;BME280;26936;50.524;8.684;2023-02-13T14:52:20;101322.59;;;11.71;72.57
41202;BME280;26936;50.524;8.684;2023-02-13T14:54:53;101328.31;;;11.53;72.95
41202;BME280;26936;50.524;8.684;2023-02-13T14:57:29;101322.59;;;11.67;73.58
41202;BME280;26936;50.524;8.684;2023-02-13T14:59:58;101318.22;;;11.52;72.85
41202;BME280;26936;50.524;8.684;2023-02-13T15:02:46;101321.34;;;11.72;70.33
41202;BME280;26936;50.524;8.684;2023-02-13T15:05:15;101314.97;;;11.61;71.28
41202;BME280;26936;50.524;8.684;2023-02-13T15:07:47;101322.59;;;11.67;69.62
41202;BME280;26936;50.524;8.684;2023-02-13T15:12:59;101316.63;;;11.55;71.96